Havana, Kansas
Current Conditions -  °F | °C
As of 10:55 PM on Saturday 25 Oct 2014 (Local Time) from KIDP Reporting Station
Clear Clear  
Wind Chill: 63°   Ceiling: Unl
Heat Index: 63°   Visibility: 7mi
Dew Point: 61°   Wind: 6mph
Humidity: 94%   Direction: 170°S
Pressure: 29.97"   Gusts: NA
Location:  37.09°N, 95.94°W
Report Text: KIDP 260355Z AUTO 17005KT 7SM CLR 17/16 A2997 RMK AO2
Loading
Personal Weather Stations






























Interactive Weather Map
Tropical Storm Tracking
New forecast layout! Learn more

10-Day Weather Forecast

Advertisements
Track Severe Weather on mobile